createdAt,value
2023-05-05T00:00:10.197Z,61.50
2023-05-05T00:02:36.207Z,62.30
2023-05-05T00:04:59.573Z,61.60
2023-05-05T00:07:22.821Z,61.30
2023-05-05T00:09:46.169Z,62.20
2023-05-05T00:12:09.725Z,62.10
2023-05-05T00:14:33.032Z,62.70
2023-05-05T00:16:56.516Z,61.90
2023-05-05T00:19:21.228Z,62.40
2023-05-05T00:21:44.471Z,61.70
2023-05-05T00:24:10.113Z,62.40
2023-05-05T00:26:33.335Z,63.50
2023-05-05T00:28:56.953Z,64.80
2023-05-05T00:31:20.449Z,64.20
2023-05-05T00:33:43.844Z,63.50
2023-05-05T00:36:09.106Z,64.80
2023-05-05T00:38:32.358Z,64.90
2023-05-05T00:40:55.646Z,64.60
2023-05-05T00:43:18.933Z,64.80
2023-05-05T00:45:47.445Z,65.20
2023-05-05T00:48:11.115Z,64.90
2023-05-05T00:50:35.097Z,65.90
2023-05-05T00:53:03.437Z,67.10
2023-05-05T00:55:27.457Z,68.10
2023-05-05T00:57:51.094Z,67.70
2023-05-05T01:00:14.949Z,68.10
2023-05-05T01:02:38.286Z,67.70
2023-05-05T01:05:01.695Z,67.90
2023-05-05T01:07:35.229Z,68.20
2023-05-05T01:10:18.996Z,68.60
2023-05-05T01:12:56.211Z,68.00
2023-05-05T01:15:29.097Z,68.60
2023-05-05T01:18:00.991Z,69.30
2023-05-05T01:20:34.535Z,68.90
2023-05-05T01:23:03.958Z,69.60
2023-05-05T01:26:20.358Z,71.00
2023-05-05T01:29:04.400Z,70.50
2023-05-05T01:31:53.065Z,70.70
2023-05-05T01:34:22.322Z,71.70
2023-05-05T01:36:52.229Z,71.50
2023-05-05T01:39:17.694Z,71.70
2023-05-05T01:41:44.371Z,71.90
2023-05-05T01:44:09.720Z,72.50
2023-05-05T01:46:35.466Z,73.00
2023-05-05T01:49:00.806Z,73.30
2023-05-05T01:51:27.157Z,73.30
2023-05-05T01:53:51.894Z,73.10
2023-05-05T01:56:16.787Z,74.10
2023-05-05T01:58:42.263Z,74.00
2023-05-05T02:01:06.081Z,73.90
2023-05-05T02:03:31.456Z,73.90
2023-05-05T02:05:58.498Z,74.60
2023-05-05T02:08:22.685Z,74.40
2023-05-05T02:10:48.888Z,74.90
2023-05-05T02:13:15.353Z,75.00
2023-05-05T02:15:39.832Z,75.40
2023-05-05T02:18:07.255Z,75.40
2023-05-05T02:20:32.912Z,75.90
2023-05-05T02:22:57.565Z,75.80
2023-05-05T02:25:21.113Z,75.90
2023-05-05T02:27:46.690Z,75.60
2023-05-05T02:30:13.308Z,76.20
2023-05-05T02:32:42.211Z,76.20
2023-05-05T02:35:15.035Z,76.20
2023-05-05T02:37:42.033Z,75.50
2023-05-05T02:40:09.061Z,76.50
2023-05-05T02:42:37.361Z,76.40
2023-05-05T02:45:11.687Z,76.80
2023-05-05T02:47:39.670Z,76.30
2023-05-05T02:50:04.136Z,76.50
2023-05-05T02:52:28.184Z,77.00
2023-05-05T02:54:51.461Z,76.60
2023-05-05T02:57:21.629Z,76.60
2023-05-05T03:00:05.724Z,77.70
2023-05-05T03:02:42.758Z,77.60
2023-05-05T03:05:13.180Z,77.50
2023-05-05T03:07:48.883Z,78.10
2023-05-05T03:10:17.866Z,77.60
2023-05-05T03:12:50.735Z,78.50
2023-05-05T03:15:21.406Z,78.70
2023-05-05T03:17:47.353Z,79.20
2023-05-05T03:20:13.909Z,79.60
2023-05-05T03:22:40.732Z,79.90
2023-05-05T03:25:09.333Z,80.20
2023-05-05T03:27:32.707Z,79.90
2023-05-05T03:29:57.787Z,80.00
2023-05-05T03:32:23.663Z,80.60
2023-05-05T03:34:50.478Z,80.90
2023-05-05T03:37:13.855Z,81.10
2023-05-05T03:39:38.624Z,81.40
2023-05-05T03:42:02.938Z,81.80
2023-05-05T03:44:29.088Z,82.00
2023-05-05T03:46:54.522Z,81.90
2023-05-05T03:49:17.946Z,83.20
2023-05-05T03:51:43.100Z,83.60
2023-05-05T03:54:06.573Z,83.30
2023-05-05T03:56:30.056Z,83.30
2023-05-05T03:58:53.455Z,83.00
2023-05-05T04:01:17.210Z,83.20
2023-05-05T04:03:41.945Z,83.20
2023-05-05T04:06:05.973Z,83.90
2023-05-05T04:08:29.920Z,83.60
2023-05-05T04:10:53.230Z,83.80
2023-05-05T04:13:17.195Z,83.90
2023-05-05T04:15:46.693Z,84.00
2023-05-05T04:18:11.315Z,84.30
2023-05-05T04:20:37.650Z,84.50
2023-05-05T04:23:01.077Z,84.40
2023-05-05T04:25:24.458Z,84.60
2023-05-05T04:27:47.776Z,84.60
2023-05-05T04:30:12.199Z,84.40
2023-05-05T04:32:37.333Z,84.80
2023-05-05T04:35:01.896Z,84.60
2023-05-05T04:37:26.745Z,84.70
2023-05-05T04:39:50.309Z,85.40
2023-05-05T04:42:13.538Z,85.90
2023-05-05T04:44:36.933Z,85.10
2023-05-05T04:47:01.789Z,85.10
2023-05-05T04:49:25.537Z,85.40
2023-05-05T04:51:48.835Z,85.50
2023-05-05T04:54:13.553Z,85.40
2023-05-05T04:56:37.107Z,85.90
2023-05-05T04:59:00.978Z,85.40
2023-05-05T05:01:24.331Z,85.30
2023-05-05T05:03:47.661Z,85.40
2023-05-05T05:06:10.936Z,85.40
2023-05-05T05:08:34.284Z,85.20
2023-05-05T05:11:06.380Z,84.90
2023-05-05T05:13:29.685Z,84.70
2023-05-05T05:15:53.404Z,84.50
2023-05-05T05:18:17.064Z,84.30
2023-05-05T05:20:41.042Z,84.80
2023-05-05T05:23:04.598Z,85.70
2023-05-05T05:25:31.839Z,85.40
2023-05-05T05:28:08.811Z,86.60
2023-05-05T05:30:36.289Z,86.40
2023-05-05T05:33:02.224Z,85.60
2023-05-05T05:35:26.488Z,85.80
2023-05-05T05:37:51.855Z,86.10
2023-05-05T05:40:15.593Z,85.90
2023-05-05T05:42:39.961Z,85.60
2023-05-05T05:45:05.409Z,85.50
2023-05-05T05:47:28.840Z,85.10
2023-05-05T05:49:53.105Z,84.70
2023-05-05T05:52:17.107Z,83.80
2023-05-05T05:54:40.334Z,83.00
2023-05-05T05:57:04.642Z,83.20
2023-05-05T05:59:30.857Z,83.00
2023-05-05T06:01:56.068Z,82.20
2023-05-05T06:04:19.824Z,82.50
2023-05-05T06:06:43.376Z,81.30
2023-05-05T06:09:06.784Z,80.70
2023-05-05T06:11:30.713Z,80.10
2023-05-05T06:13:54.264Z,79.90
2023-05-05T06:16:17.730Z,80.40
2023-05-05T06:18:43.829Z,80.70
2023-05-05T06:21:07.233Z,78.70
2023-05-05T06:23:30.710Z,78.70
2023-05-05T06:25:58.920Z,77.00
2023-05-05T06:28:22.358Z,77.40
2023-05-05T06:30:45.691Z,77.60
2023-05-05T06:33:09.105Z,74.50
2023-05-05T06:35:33.893Z,75.50
2023-05-05T06:37:57.130Z,74.90
2023-05-05T06:40:21.008Z,74.60
2023-05-05T06:42:44.301Z,73.80
2023-05-05T06:45:13.643Z,73.00
2023-05-05T06:47:37.051Z,72.90
2023-05-05T06:50:00.332Z,72.20
2023-05-05T06:52:25.672Z,72.00
2023-05-05T06:54:48.955Z,71.30
2023-05-05T06:57:12.225Z,71.60
2023-05-05T06:59:35.519Z,70.00
2023-05-05T07:01:58.713Z,71.00
2023-05-05T07:04:22.282Z,70.70
2023-05-05T07:06:45.545Z,70.00
2023-05-05T07:09:10.158Z,70.50
2023-05-05T07:11:33.468Z,71.40
2023-05-05T07:13:56.804Z,71.50
2023-05-05T07:16:20.186Z,70.00
2023-05-05T07:18:43.536Z,69.90
2023-05-05T07:21:06.938Z,71.30
2023-05-05T07:23:30.163Z,70.50
2023-05-05T07:25:56.094Z,70.90
2023-05-05T07:28:19.784Z,69.70
2023-05-05T07:30:43.348Z,69.50
2023-05-05T07:33:06.763Z,71.00
2023-05-05T07:35:30.196Z,69.40
2023-05-05T07:37:53.497Z,70.20
2023-05-05T07:40:16.824Z,70.30
2023-05-05T07:42:41.666Z,70.50
2023-05-05T07:45:06.888Z,69.70
2023-05-05T07:47:30.305Z,71.00
2023-05-05T07:49:53.739Z,70.80
2023-05-05T07:52:17.050Z,70.40
2023-05-05T07:54:41.212Z,70.90
2023-05-05T07:57:04.623Z,71.20
2023-05-05T07:59:29.760Z,69.80
2023-05-05T08:01:54.858Z,68.40
2023-05-05T08:04:18.377Z,69.50
2023-05-05T08:06:41.663Z,69.00
2023-05-05T08:09:05.300Z,70.00
2023-05-05T08:11:29.615Z,70.50
2023-05-05T08:13:53.188Z,69.00
2023-05-05T08:16:18.218Z,68.90
2023-05-05T08:18:41.900Z,69.30
2023-05-05T08:21:05.382Z,69.00
2023-05-05T08:23:28.743Z,69.40
2023-05-05T08:25:52.343Z,69.50
2023-05-05T08:28:15.689Z,68.20
2023-05-05T08:30:38.943Z,68.80
2023-05-05T08:33:03.617Z,71.10
2023-05-05T08:35:26.937Z,70.40
2023-05-05T08:37:51.563Z,69.60
2023-05-05T08:40:15.850Z,68.20
2023-05-05T08:42:39.712Z,70.80
2023-05-05T08:45:03.115Z,66.50
2023-05-05T08:47:26.587Z,67.90
2023-05-05T08:49:54.820Z,67.60
2023-05-05T08:52:24.161Z,67.10
2023-05-05T08:54:53.250Z,65.30
2023-05-05T08:57:21.041Z,65.50
2023-05-05T08:59:45.547Z,64.20
2023-05-05T09:02:11.536Z,65.70
2023-05-05T09:04:36.195Z,66.10
2023-05-05T09:07:01.774Z,68.60
2023-05-05T09:09:25.367Z,69.30
2023-05-05T09:11:49.430Z,66.30
2023-05-05T09:14:12.999Z,65.90
2023-05-05T09:16:36.302Z,63.80
2023-05-05T09:19:03.827Z,65.00
2023-05-05T09:21:27.830Z,65.60
2023-05-05T09:24:10.220Z,65.60
2023-05-05T09:26:35.238Z,63.20
2023-05-05T09:28:58.863Z,62.20
2023-05-05T09:31:22.401Z,62.10
2023-05-05T09:33:45.789Z,62.90
2023-05-05T09:36:09.335Z,64.00
2023-05-05T09:38:32.769Z,65.40
2023-05-05T09:40:57.369Z,63.50
2023-05-05T09:43:22.307Z,63.10
2023-05-05T09:45:46.105Z,61.80
2023-05-05T09:48:24.580Z,58.30
2023-05-05T09:50:48.757Z,59.70
2023-05-05T09:53:12.532Z,61.10
2023-05-05T09:55:36.052Z,62.10
2023-05-05T09:58:20.182Z,59.00
2023-05-05T10:00:43.652Z,57.50
2023-05-05T10:03:06.962Z,58.80
2023-05-05T10:05:30.692Z,56.20
2023-05-05T10:07:53.961Z,54.00
2023-05-05T10:10:19.189Z,53.20
2023-05-05T10:12:42.792Z,57.20
2023-05-05T10:15:09.851Z,58.40
2023-05-05T10:17:38.262Z,57.20
2023-05-05T10:20:04.100Z,57.60
2023-05-05T10:22:30.344Z,56.10
2023-05-05T10:24:59.339Z,57.10
2023-05-05T10:27:25.795Z,58.30
2023-05-05T10:29:54.884Z,58.50
2023-05-05T10:32:53.245Z,57.00
2023-05-05T10:35:11.856Z,59.80
2023-05-05T10:37:38.251Z,60.90
2023-05-05T10:40:03.435Z,61.40
2023-05-05T10:42:27.723Z,62.90
2023-05-05T10:44:51.665Z,65.90
2023-05-05T10:47:15.409Z,67.00
2023-05-05T10:49:48.890Z,63.30
2023-05-05T10:52:23.800Z,63.30
2023-05-05T10:54:52.899Z,64.80
2023-05-05T10:57:20.029Z,66.00
2023-05-05T10:59:44.443Z,66.20
2023-05-05T11:02:26.349Z,64.90
2023-05-05T11:05:08.575Z,63.40
2023-05-05T11:07:33.757Z,64.40
2023-05-05T11:10:01.319Z,60.40
2023-05-05T11:12:24.812Z,61.70
2023-05-05T11:14:48.121Z,62.50
2023-05-05T11:17:46.373Z,60.70
2023-05-05T11:20:11.895Z,64.60
2023-05-05T11:23:16.024Z,63.50
2023-05-05T11:25:51.340Z,63.90
2023-05-05T11:28:17.263Z,63.80
2023-05-05T11:31:20.122Z,62.60
2023-05-05T11:33:43.863Z,62.50
2023-05-05T11:36:10.691Z,62.80
2023-05-05T11:38:52.770Z,62.10
2023-05-05T11:41:31.858Z,62.70
2023-05-05T11:44:11.262Z,61.70
2023-05-05T11:46:34.571Z,61.60
2023-05-05T11:48:57.879Z,62.50
2023-05-05T11:51:23.258Z,62.80
2023-05-05T11:53:48.911Z,66.50
2023-05-05T11:56:18.676Z,65.30
2023-05-05T11:58:42.772Z,65.40
2023-05-05T12:01:07.463Z,65.40
2023-05-05T12:03:36.586Z,65.80
2023-05-05T12:06:00.904Z,65.60
2023-05-05T12:08:25.891Z,65.70
2023-05-05T12:10:49.741Z,66.10
2023-05-05T12:13:20.366Z,66.00
2023-05-05T12:15:43.824Z,64.10
2023-05-05T12:18:07.177Z,64.40
2023-05-05T12:20:35.098Z,64.30
2023-05-05T12:23:02.684Z,63.10
2023-05-05T12:25:27.406Z,62.00
2023-05-05T12:27:54.045Z,61.70
2023-05-05T12:30:19.364Z,64.00
2023-05-05T12:32:43.088Z,65.60
2023-05-05T12:35:08.935Z,63.70
2023-05-05T12:37:32.305Z,62.60
2023-05-05T12:39:55.914Z,61.60
2023-05-05T12:42:20.547Z,63.00
2023-05-05T12:44:44.942Z,61.30
2023-05-05T12:47:08.939Z,60.60
2023-05-05T12:49:34.059Z,62.30
2023-05-05T12:51:58.388Z,63.60
2023-05-05T12:54:23.369Z,63.20
2023-05-05T12:56:48.352Z,63.70
2023-05-05T12:59:30.000Z,63.60
2023-05-05T13:01:55.580Z,64.50
2023-05-05T13:04:20.027Z,63.20
2023-05-05T13:06:45.514Z,62.20
2023-05-05T13:09:09.687Z,62.40
2023-05-05T13:11:37.287Z,62.00
2023-05-05T13:14:00.567Z,63.50
2023-05-05T13:16:25.454Z,63.20
2023-05-05T13:18:50.190Z,62.10
2023-05-05T13:21:13.614Z,60.60
2023-05-05T13:23:37.295Z,63.40
2023-05-05T13:26:00.626Z,59.00
2023-05-05T13:28:23.945Z,60.30
2023-05-05T13:30:47.379Z,62.10
2023-05-05T13:33:12.072Z,61.70
2023-05-05T13:35:35.527Z,61.50
2023-05-05T13:37:58.788Z,60.30
2023-05-05T13:40:23.816Z,61.90
2023-05-05T13:42:48.946Z,60.40
2023-05-05T13:45:14.254Z,61.50
2023-05-05T13:47:37.610Z,61.00
2023-05-05T13:50:02.299Z,60.50
2023-05-05T13:52:25.589Z,59.70
2023-05-05T13:54:49.209Z,60.40
2023-05-05T13:57:12.542Z,61.20
2023-05-05T13:59:35.775Z,62.90
2023-05-05T14:02:00.886Z,61.00
2023-05-05T14:04:24.175Z,61.40
2023-05-05T14:06:49.046Z,62.10
2023-05-05T14:09:13.111Z,61.80
2023-05-05T14:11:36.353Z,62.60
2023-05-05T14:13:59.593Z,62.80
2023-05-05T14:16:22.963Z,65.40
2023-05-05T14:18:46.282Z,64.90
2023-05-05T14:21:09.802Z,64.10
2023-05-05T14:23:34.483Z,64.30
2023-05-05T14:25:57.798Z,68.40
2023-05-05T14:28:21.052Z,70.40
2023-05-05T14:30:44.419Z,70.70
2023-05-05T14:33:07.941Z,73.30
2023-05-05T14:35:32.100Z,76.70
2023-05-05T14:37:55.346Z,77.00
2023-05-05T14:40:19.925Z,80.90
2023-05-05T14:42:43.108Z,82.10
2023-05-05T14:45:09.526Z,83.20
2023-05-05T14:47:34.496Z,83.30
2023-05-05T14:49:57.799Z,84.00
2023-05-05T14:52:21.058Z,84.20
2023-05-05T14:54:44.321Z,84.00
2023-05-05T14:57:09.184Z,85.30
2023-05-05T14:59:32.499Z,85.60
2023-05-05T15:01:56.246Z,84.90
2023-05-05T15:04:19.599Z,85.20
2023-05-05T15:06:42.987Z,85.00
2023-05-05T15:09:06.562Z,86.00
2023-05-05T15:11:29.802Z,86.80
2023-05-05T15:13:54.551Z,86.90
2023-05-05T15:16:17.848Z,86.90
2023-05-05T15:18:41.257Z,87.50
2023-05-05T15:21:04.889Z,88.50
2023-05-05T15:23:28.259Z,88.60
2023-05-05T15:25:51.583Z,88.10
2023-05-05T15:28:14.885Z,87.30
2023-05-05T15:30:39.780Z,88.40
2023-05-05T15:33:03.202Z,88.80
2023-05-05T15:35:26.565Z,89.20
2023-05-05T15:37:49.855Z,89.20
2023-05-05T15:40:13.841Z,88.50
2023-05-05T15:42:37.133Z,88.70
2023-05-05T15:45:00.957Z,88.50
2023-05-05T15:47:25.602Z,88.70
2023-05-05T15:49:48.944Z,88.90
2023-05-05T15:52:12.804Z,88.50
2023-05-05T15:54:36.329Z,88.10
2023-05-05T15:56:59.546Z,88.30
2023-05-05T15:59:23.325Z,88.80
2023-05-05T16:01:46.945Z,89.10
2023-05-05T16:04:12.058Z,88.30
2023-05-05T16:06:35.862Z,88.60
2023-05-05T16:08:59.295Z,88.50
2023-05-05T16:11:23.801Z,87.50
2023-05-05T16:13:47.145Z,87.10
2023-05-05T16:16:10.539Z,88.10
2023-05-05T16:18:34.031Z,88.10
2023-05-05T16:20:58.763Z,87.30
2023-05-05T16:23:22.117Z,87.50
2023-05-05T16:25:45.573Z,86.60
2023-05-05T16:28:08.847Z,86.90
2023-05-05T16:30:32.274Z,86.50
2023-05-05T16:32:55.664Z,86.30
2023-05-05T16:35:19.249Z,86.50
2023-05-05T16:37:43.825Z,86.60
2023-05-05T16:40:09.092Z,86.80
2023-05-05T16:42:32.618Z,87.10
2023-05-05T16:44:56.326Z,86.90
2023-05-05T16:47:19.490Z,87.80
2023-05-05T16:49:42.712Z,87.80
2023-05-05T16:52:06.168Z,87.60
2023-05-05T16:54:30.778Z,87.70
2023-05-05T16:56:54.897Z,87.10
2023-05-05T16:59:19.224Z,87.00
2023-05-05T17:01:43.350Z,87.40
2023-05-05T17:04:06.717Z,87.00
2023-05-05T17:06:33.057Z,87.50
2023-05-05T17:08:56.494Z,87.20
2023-05-05T17:11:21.594Z,87.40
2023-05-05T17:13:44.878Z,87.50
2023-05-05T17:16:08.434Z,87.60
2023-05-05T17:18:31.708Z,87.80
2023-05-05T17:20:55.308Z,88.10
2023-05-05T17:23:19.020Z,87.90
2023-05-05T17:25:42.255Z,88.20
2023-05-05T17:28:07.465Z,88.70
2023-05-05T17:30:30.897Z,88.70
2023-05-05T17:32:54.578Z,88.60
2023-05-05T17:35:17.963Z,88.30
2023-05-05T17:37:41.455Z,88.60
2023-05-05T17:40:05.836Z,88.70
2023-05-05T17:42:32.961Z,88.40
2023-05-05T17:44:57.669Z,88.30
2023-05-05T17:47:22.418Z,89.00
2023-05-05T17:49:45.707Z,89.40
2023-05-05T17:52:09.026Z,89.80
2023-05-05T17:54:32.281Z,90.20
2023-05-05T17:56:55.496Z,90.40
2023-05-05T17:59:18.843Z,90.70
2023-05-05T18:01:43.541Z,90.50
2023-05-05T18:04:07.152Z,91.00
2023-05-05T18:06:30.688Z,91.30
2023-05-05T18:08:53.997Z,91.50
2023-05-05T18:11:17.381Z,91.30
2023-05-05T18:13:40.699Z,91.30
2023-05-05T18:16:04.430Z,91.30
2023-05-05T18:18:29.163Z,91.30
2023-05-05T18:20:52.479Z,91.20
2023-05-05T18:23:15.769Z,91.00
2023-05-05T18:25:39.144Z,91.10
2023-05-05T18:28:02.548Z,91.10
2023-05-05T18:30:25.960Z,91.20
2023-05-05T18:32:49.876Z,91.20
2023-05-05T18:35:14.710Z,91.50
2023-05-05T18:37:37.956Z,91.50
2023-05-05T18:40:01.245Z,91.60
2023-05-05T18:42:24.595Z,91.70
2023-05-05T18:44:47.985Z,91.80
2023-05-05T18:47:11.357Z,91.80
2023-05-05T18:49:34.930Z,91.40
2023-05-05T18:51:59.720Z,91.80
2023-05-05T18:54:23.004Z,91.50
2023-05-05T18:56:46.255Z,91.90
2023-05-05T18:59:09.585Z,91.70
2023-05-05T19:01:32.881Z,91.80
2023-05-05T19:03:56.157Z,91.80
2023-05-05T19:06:19.483Z,91.70
2023-05-05T19:08:45.119Z,91.50
2023-05-05T19:11:08.385Z,91.70
2023-05-05T19:13:31.684Z,91.80
2023-05-05T19:15:57.035Z,91.60
2023-05-05T19:18:20.277Z,92.10
2023-05-05T19:20:43.637Z,92.30
2023-05-05T19:23:07.134Z,92.50
2023-05-05T19:25:31.998Z,92.60
2023-05-05T19:27:55.265Z,92.40
2023-05-05T19:30:18.642Z,92.30
2023-05-05T19:32:42.050Z,92.30
2023-05-05T19:35:06.809Z,92.30
2023-05-05T19:37:30.178Z,92.20
2023-05-05T19:39:53.805Z,92.20
2023-05-05T19:42:18.744Z,92.30
2023-05-05T19:44:42.044Z,92.20
2023-05-05T19:47:05.462Z,92.20
2023-05-05T19:49:28.771Z,92.10
2023-05-05T19:51:52.821Z,92.00
2023-05-05T19:54:16.264Z,91.90
2023-05-05T19:56:39.577Z,92.00
2023-05-05T19:59:06.144Z,92.00
2023-05-05T20:01:30.060Z,92.00
2023-05-05T20:03:57.987Z,92.10
2023-05-05T20:06:21.637Z,92.20
2023-05-05T20:08:44.940Z,92.30
2023-05-05T20:11:08.226Z,92.20
2023-05-05T20:13:31.567Z,92.30
2023-05-05T20:15:56.227Z,92.20
2023-05-05T20:18:19.607Z,92.20
2023-05-05T20:20:43.598Z,92.30
2023-05-05T20:23:06.888Z,92.40
2023-05-05T20:25:30.494Z,92.50
2023-05-05T20:27:53.744Z,92.60
2023-05-05T20:30:17.631Z,92.60
2023-05-05T20:32:42.535Z,92.70
2023-05-05T20:35:07.238Z,92.70
2023-05-05T20:37:30.753Z,92.60
2023-05-05T20:39:54.453Z,92.60
2023-05-05T20:42:17.674Z,92.70
2023-05-05T20:44:41.130Z,92.80
2023-05-05T20:47:04.469Z,92.90
2023-05-05T20:49:29.143Z,92.90
2023-05-05T20:51:52.482Z,92.90
2023-05-05T20:54:15.703Z,92.90
2023-05-05T20:56:38.889Z,92.80
2023-05-05T20:59:04.036Z,92.80
2023-05-05T21:01:28.384Z,92.70
2023-05-05T21:03:51.893Z,92.80
2023-05-05T21:06:16.455Z,92.90
2023-05-05T21:08:39.704Z,92.90
2023-05-05T21:11:04.281Z,92.90
2023-05-05T21:13:27.528Z,93.00
2023-05-05T21:15:50.773Z,93.00
2023-05-05T21:18:14.086Z,93.00
2023-05-05T21:20:37.363Z,93.10
2023-05-05T21:23:02.067Z,93.10
2023-05-05T21:25:26.703Z,93.20
2023-05-05T21:27:50.510Z,93.20
2023-05-05T21:30:14.517Z,93.20
2023-05-05T21:32:38.444Z,93.20
2023-05-05T21:35:01.813Z,93.20
2023-05-05T21:37:25.140Z,93.30
2023-05-05T21:39:50.063Z,93.30
2023-05-05T21:42:13.346Z,93.30
2023-05-05T21:44:36.676Z,93.30
2023-05-05T21:47:00.143Z,93.30
2023-05-05T21:49:23.853Z,93.30
2023-05-05T21:51:47.395Z,93.30
2023-05-05T21:54:11.110Z,93.40
2023-05-05T21:56:36.499Z,93.40
2023-05-05T21:58:59.980Z,93.50
2023-05-05T22:01:23.232Z,93.50
2023-05-05T22:03:47.522Z,93.60
2023-05-05T22:06:12.323Z,93.60
2023-05-05T22:08:38.455Z,93.60
2023-05-05T22:11:01.698Z,93.60
2023-05-05T22:13:26.388Z,93.60
2023-05-05T22:15:49.743Z,93.60
2023-05-05T22:18:13.057Z,93.60
2023-05-05T22:20:36.903Z,93.60
2023-05-05T22:23:00.206Z,93.60
2023-05-05T22:25:23.720Z,93.60
2023-05-05T22:27:46.939Z,93.50
2023-05-05T22:30:13.691Z,93.50
2023-05-05T22:32:36.948Z,93.60
2023-05-05T22:35:01.224Z,93.50
2023-05-05T22:37:24.561Z,93.60
2023-05-05T22:39:48.268Z,93.60
2023-05-05T22:42:11.672Z,93.60
2023-05-05T22:44:34.984Z,93.60
2023-05-05T22:46:59.800Z,93.70
2023-05-05T22:49:23.232Z,93.70
2023-05-05T22:51:46.975Z,93.80
2023-05-05T22:54:10.617Z,93.70
2023-05-05T22:56:33.896Z,93.70
2023-05-05T22:58:57.448Z,93.70
2023-05-05T23:01:20.759Z,93.70
2023-05-05T23:03:45.505Z,93.70
2023-05-05T23:06:09.115Z,93.80
2023-05-05T23:08:32.365Z,93.70
2023-05-05T23:10:55.705Z,93.80
2023-05-05T23:13:19.034Z,93.70
2023-05-05T23:15:42.400Z,93.70
2023-05-05T23:18:05.901Z,93.80
2023-05-05T23:20:30.672Z,93.80
2023-05-05T23:22:53.942Z,93.80
2023-05-05T23:25:17.396Z,93.80
2023-05-05T23:27:41.116Z,93.70
2023-05-05T23:30:05.046Z,93.80
2023-05-05T23:32:28.316Z,93.80
2023-05-05T23:34:51.644Z,93.80
2023-05-05T23:37:16.246Z,93.80
2023-05-05T23:39:39.556Z,93.70
2023-05-05T23:42:03.399Z,93.80
2023-05-05T23:44:27.650Z,93.70
2023-05-05T23:46:50.854Z,93.80
2023-05-05T23:49:14.121Z,93.80
2023-05-05T23:51:37.839Z,93.80
2023-05-05T23:54:02.592Z,93.70
2023-05-05T23:56:26.272Z,93.80
2023-05-05T23:58:49.609Z,93.70
